Decoded Metar for LFMT (MONTPELLIER in FRANCE) (IATA:MPL) | Meteo·Mobile Aviation Weather
aviador You're here:

LFMT Decoded Metar

MONTPELLIER in FRANCE
Report Time2019-09-23 09:00:00
UTC Time2019-09-23 09:35:09
Flight Rules vfr VFR
Wind290° at 08 kt
W.Decomp.*RWY 30: 7.9 kt HW 1.4 kt LCW
Visibility9999 m
Phenomena:N/A
Clouds:N/A
Expected CloudBase > 3,600 ft AGL from Temp-Dew spread
CeilingNone
Temp20°C (ISA +5)
Dew Point11°C (56% RH)
AAT17.4°C
QNH1018 hPa
Density Alt620 ft
Elevation20 ft
Report Wrong Elevation
Raw Report
LFMT 230900Z AUTO 29008KT CAVOK 20/11 Q1018 NOSIG=

Extra information for LFMT:More info

Metar Taf Metar & Taf Last 4 Metars F.Rules Stats Wind Profile Meteogram Temp Stats Airport Information Weather charts Add Link Nearby VenuesMetar ALERT Operation Metar Decoded Social comments